Terminal Aerodrome Forecast
Issued by NWS

Home | Current Version | Previous Version | Text Only | Print | Product List | Glossary Off
Versions: 1 2 3 4 5 6 7 8 9 10 11 12 13 14 15 16

000
FTUS43 KMPX 281720
TAFRNH
TAF
KRNH 281720Z 2818/0118 17006KT P6SM SCT200
     FM282200 18011KT P6SM SCT040 BKN090
     FM010300 19009KT P6SM OVC030
     FM010600 19009KT 6SM -SN OVC025
     FM011000 21006KT P6SM SCT020 BKN040
     FM011500 25008KT P6SM SCT250=

USA.gov is the U.S. government's official web portal to all federal, state and local government web resources and services.